createdAt,value
2023-04-08T00:00:30.398Z,5.10
2023-04-08T00:02:57.425Z,5.10
2023-04-08T00:05:24.401Z,5.20
2023-04-08T00:07:51.318Z,5.10
2023-04-08T00:10:18.361Z,5.20
2023-04-08T00:12:45.249Z,5.10
2023-04-08T00:15:12.088Z,5.10
2023-04-08T00:17:38.945Z,5.10
2023-04-08T00:20:06.782Z,5.10
2023-04-08T00:22:33.618Z,5.10
2023-04-08T00:25:00.567Z,5.10
2023-04-08T00:27:27.467Z,5.10
2023-04-08T00:29:54.365Z,5.20
2023-04-08T00:32:21.511Z,5.20
2023-04-08T00:34:48.450Z,5.20
2023-04-08T00:37:15.443Z,5.10
2023-04-08T00:39:42.285Z,5.10
2023-04-08T00:42:09.773Z,5.10
2023-04-08T00:44:36.591Z,5.10
2023-04-08T00:47:04.334Z,5.10
2023-04-08T00:49:32.189Z,5.20
2023-04-08T00:52:00.535Z,5.20
2023-04-08T00:54:27.345Z,5.20
2023-04-08T00:56:54.230Z,5.10
2023-04-08T00:59:21.092Z,5.20
2023-04-08T01:01:54.942Z,5.10
2023-04-08T01:04:31.869Z,5.10
2023-04-08T01:07:13.757Z,5.20
2023-04-08T01:09:46.355Z,5.20
2023-04-08T01:12:22.506Z,5.20
2023-04-08T01:14:52.118Z,5.20
2023-04-08T01:17:21.982Z,5.30
2023-04-08T01:19:50.584Z,5.20
2023-04-08T01:22:43.936Z,5.20
2023-04-08T01:25:17.403Z,5.20
2023-04-08T01:27:44.558Z,5.20
2023-04-08T01:30:13.829Z,5.20
2023-04-08T01:32:43.822Z,5.20
2023-04-08T01:35:11.209Z,5.20
2023-04-08T01:37:39.795Z,5.20
2023-04-08T01:40:09.287Z,5.20
2023-04-08T01:42:38.686Z,5.20
2023-04-08T01:45:06.962Z,5.20
2023-04-08T01:47:37.085Z,5.20
2023-04-08T01:50:06.223Z,5.30
2023-04-08T01:52:38.304Z,5.30
2023-04-08T01:55:05.866Z,5.30
2023-04-08T01:57:36.468Z,5.30
2023-04-08T02:00:07.477Z,5.30
2023-04-08T02:02:47.697Z,5.30
2023-04-08T02:05:15.488Z,5.30
2023-04-08T02:07:42.325Z,5.30
2023-04-08T02:10:09.900Z,5.30
2023-04-08T02:12:36.947Z,5.30
2023-04-08T02:15:09.699Z,5.30
2023-04-08T02:17:41.237Z,5.30
2023-04-08T02:20:18.224Z,5.30
2023-04-08T02:23:09.165Z,5.30
2023-04-08T02:25:38.918Z,5.30
2023-04-08T02:28:09.505Z,5.30
2023-04-08T02:30:41.412Z,5.30
2023-04-08T02:33:08.975Z,5.30
2023-04-08T02:35:36.859Z,5.30
2023-04-08T02:38:03.853Z,5.30
2023-04-08T02:40:33.008Z,5.30
2023-04-08T02:43:00.353Z,5.30
2023-04-08T02:45:31.567Z,5.30
2023-04-08T02:48:00.517Z,5.30
2023-04-08T02:50:27.640Z,5.30
2023-04-08T02:52:54.527Z,5.40
2023-04-08T02:55:21.460Z,5.30
2023-04-08T02:57:48.956Z,5.40
2023-04-08T03:00:16.207Z,5.40
2023-04-08T03:02:43.447Z,5.40
2023-04-08T03:05:10.576Z,5.40
2023-04-08T03:07:37.521Z,5.40
2023-04-08T03:10:04.917Z,5.40
2023-04-08T03:12:31.712Z,5.40
2023-04-08T03:14:58.570Z,5.40
2023-04-08T03:17:25.452Z,5.40
2023-04-08T03:19:52.279Z,5.40
2023-04-08T03:22:19.504Z,5.40
2023-04-08T03:24:46.352Z,5.40
2023-04-08T03:27:14.150Z,5.40
2023-04-08T03:29:41.370Z,5.40
2023-04-08T03:32:08.510Z,5.40
2023-04-08T03:34:35.658Z,5.40
2023-04-08T03:37:02.886Z,5.40
2023-04-08T03:39:29.607Z,5.50
2023-04-08T03:41:56.505Z,5.50
2023-04-08T03:44:23.350Z,5.50
2023-04-08T03:46:50.386Z,5.50
2023-04-08T03:49:17.125Z,5.50
2023-04-08T03:51:43.873Z,5.50
2023-04-08T03:54:10.984Z,5.40
2023-04-08T03:56:37.981Z,5.50
2023-04-08T03:59:04.731Z,5.50
2023-04-08T04:01:32.311Z,5.40
2023-04-08T04:03:59.244Z,5.50
2023-04-08T04:06:26.639Z,5.50
2023-04-08T04:08:57.268Z,5.50
2023-04-08T04:11:24.024Z,5.50
2023-04-08T04:13:50.981Z,5.50
2023-04-08T04:16:17.870Z,5.50
2023-04-08T04:18:44.812Z,5.50
2023-04-08T04:21:11.673Z,5.50
2023-04-08T04:23:38.454Z,5.50
2023-04-08T04:26:10.158Z,5.50
2023-04-08T04:28:37.293Z,5.50
2023-04-08T04:31:04.533Z,5.60
2023-04-08T04:33:31.683Z,5.60
2023-04-08T04:35:58.461Z,5.50
2023-04-08T04:38:25.554Z,5.50
2023-04-08T04:40:52.530Z,5.50
2023-04-08T04:43:19.374Z,5.50
2023-04-08T04:45:46.324Z,5.60
2023-04-08T04:48:13.136Z,5.60
2023-04-08T04:50:39.972Z,5.60
2023-04-08T04:53:06.740Z,5.60
2023-04-08T04:55:33.490Z,5.50
2023-04-08T04:58:00.405Z,5.60
2023-04-08T05:00:27.172Z,5.60
2023-04-08T05:02:54.200Z,5.70
2023-04-08T05:05:21.227Z,5.70
2023-04-08T05:07:48.085Z,5.70
2023-04-08T05:10:14.877Z,5.70
2023-04-08T05:12:41.657Z,5.70
2023-04-08T05:15:08.842Z,5.70
2023-04-08T05:17:36.164Z,5.70
2023-04-08T05:20:03.689Z,5.70
2023-04-08T05:22:30.483Z,5.70
2023-04-08T05:24:57.241Z,5.80
2023-04-08T05:27:24.138Z,5.80
2023-04-08T05:29:51.043Z,5.80
2023-04-08T05:32:17.899Z,5.80
2023-04-08T05:34:44.865Z,5.80
2023-04-08T05:37:11.843Z,5.80
2023-04-08T05:39:38.694Z,5.80
2023-04-08T05:42:05.641Z,5.80
2023-04-08T05:44:32.433Z,5.80
2023-04-08T05:47:00.459Z,5.90
2023-04-08T05:49:27.339Z,5.90
2023-04-08T05:51:54.151Z,5.90
2023-04-08T05:54:23.064Z,6.00
2023-04-08T05:56:50.037Z,6.00
2023-04-08T05:59:16.996Z,6.00
2023-04-08T06:01:43.954Z,6.00
2023-04-08T06:04:10.844Z,6.10
2023-04-08T06:06:41.228Z,6.10
2023-04-08T06:09:08.968Z,6.10
2023-04-08T06:11:35.940Z,6.10
2023-04-08T06:14:02.713Z,6.10
2023-04-08T06:16:29.573Z,6.20
2023-04-08T06:18:56.648Z,6.10
2023-04-08T06:21:23.549Z,6.20
2023-04-08T06:23:50.700Z,6.20
2023-04-08T06:26:17.993Z,6.30
2023-04-08T06:28:44.800Z,6.30
2023-04-08T06:31:11.911Z,6.40
2023-04-08T06:33:38.793Z,6.40
2023-04-08T06:36:07.146Z,6.40
2023-04-08T06:38:34.531Z,6.60
2023-04-08T06:41:05.029Z,6.60
2023-04-08T06:43:32.122Z,6.60
2023-04-08T06:45:59.433Z,6.60
2023-04-08T06:48:30.567Z,6.60
2023-04-08T06:50:58.732Z,6.70
2023-04-08T06:53:26.237Z,6.70
2023-04-08T06:55:53.032Z,6.70
2023-04-08T06:58:19.868Z,6.80
2023-04-08T07:00:47.341Z,6.80
2023-04-08T07:03:14.392Z,6.80
2023-04-08T07:05:42.129Z,7.00
2023-04-08T07:08:09.348Z,7.00
2023-04-08T07:10:36.479Z,7.00
2023-04-08T07:13:03.422Z,7.00
2023-04-08T07:15:30.502Z,6.90
2023-04-08T07:17:57.518Z,7.00
2023-04-08T07:20:24.505Z,7.10
2023-04-08T07:22:51.601Z,7.20
2023-04-08T07:25:18.321Z,7.30
2023-04-08T07:27:45.273Z,7.20
2023-04-08T07:30:12.689Z,7.30
2023-04-08T07:32:39.598Z,7.40
2023-04-08T07:35:07.145Z,7.50
2023-04-08T07:37:33.972Z,7.60
2023-04-08T07:40:00.804Z,7.70
2023-04-08T07:42:27.717Z,7.80
2023-04-08T07:44:54.643Z,7.90
2023-04-08T07:47:21.725Z,8.00
2023-04-08T07:49:48.573Z,8.00
2023-04-08T07:52:15.643Z,7.90
2023-04-08T07:54:42.510Z,7.80
2023-04-08T07:57:09.413Z,7.80
2023-04-08T07:59:36.861Z,7.80
2023-04-08T08:02:04.053Z,7.80
2023-04-08T08:04:31.040Z,7.90
2023-04-08T08:06:58.060Z,7.80
2023-04-08T08:09:24.882Z,7.80
2023-04-08T08:11:51.698Z,7.90
2023-04-08T08:14:18.567Z,8.00
2023-04-08T08:16:45.363Z,8.10
2023-04-08T08:19:13.805Z,8.20
2023-04-08T08:21:40.725Z,8.10
2023-04-08T08:24:07.698Z,8.20
2023-04-08T08:26:37.463Z,8.10
2023-04-08T08:29:05.130Z,8.10
2023-04-08T08:31:31.981Z,8.20
2023-04-08T08:33:58.762Z,8.30
2023-04-08T08:36:27.376Z,8.30
2023-04-08T08:38:54.409Z,8.30
2023-04-08T08:41:21.702Z,8.30
2023-04-08T08:43:49.554Z,8.30
2023-04-08T08:46:19.120Z,8.40
2023-04-08T08:48:46.444Z,8.50
2023-04-08T08:51:14.054Z,8.50
2023-04-08T08:53:45.306Z,8.50
2023-04-08T08:56:18.205Z,8.50
2023-04-08T08:58:47.296Z,8.50
2023-04-08T09:01:34.322Z,8.50
2023-04-08T09:04:20.020Z,8.60
2023-04-08T09:06:49.965Z,8.50
2023-04-08T09:09:17.667Z,8.50
2023-04-08T09:11:46.881Z,8.50
2023-04-08T09:14:24.019Z,8.50
2023-04-08T09:16:51.963Z,8.70
2023-04-08T09:19:19.186Z,9.00
2023-04-08T09:21:46.240Z,9.20
2023-04-08T09:24:28.982Z,9.50
2023-04-08T09:26:56.524Z,9.50
2023-04-08T09:29:31.134Z,9.60
2023-04-08T09:32:00.987Z,9.70
2023-04-08T09:34:29.448Z,9.70
2023-04-08T09:36:56.567Z,9.80
2023-04-08T09:39:23.967Z,9.90
2023-04-08T09:41:52.383Z,10.00
2023-04-08T09:44:21.631Z,9.90
2023-04-08T09:46:52.496Z,9.80
2023-04-08T09:49:25.561Z,9.60
2023-04-08T09:52:07.493Z,9.50
2023-04-08T09:54:55.940Z,9.60
2023-04-08T09:57:33.596Z,9.70
2023-04-08T10:00:17.892Z,10.00
2023-04-08T10:03:01.768Z,10.00
2023-04-08T10:05:31.023Z,10.00
2023-04-08T10:07:57.990Z,10.10
2023-04-08T10:10:26.214Z,10.30
2023-04-08T10:12:53.132Z,10.30
2023-04-08T10:15:26.928Z,10.10
2023-04-08T10:18:04.602Z,10.10
2023-04-08T10:20:34.704Z,10.00
2023-04-08T10:23:14.299Z,10.00
2023-04-08T10:25:45.483Z,10.00
2023-04-08T10:28:15.366Z,9.90
2023-04-08T10:30:55.585Z,10.00
2023-04-08T10:33:30.074Z,10.30
2023-04-08T10:36:11.597Z,10.60
2023-04-08T10:38:39.816Z,10.80
2023-04-08T10:41:06.834Z,11.00
2023-04-08T10:43:35.092Z,11.10
2023-04-08T10:46:02.217Z,11.10
2023-04-08T10:48:29.578Z,11.20
2023-04-08T10:51:00.608Z,11.10
2023-04-08T10:53:33.756Z,11.30
2023-04-08T10:56:07.752Z,11.20
2023-04-08T10:58:36.830Z,11.20
2023-04-08T11:01:07.701Z,11.30
2023-04-08T11:03:36.342Z,11.20
2023-04-08T11:06:04.271Z,11.10
2023-04-08T11:08:32.815Z,11.10
2023-04-08T11:11:05.331Z,11.10
2023-04-08T11:13:33.499Z,11.20
2023-04-08T11:16:01.091Z,11.20
2023-04-08T11:18:28.618Z,11.20
2023-04-08T11:20:57.622Z,11.10
2023-04-08T11:23:26.370Z,11.10
2023-04-08T11:25:53.684Z,11.00
2023-04-08T11:28:21.289Z,11.00
2023-04-08T11:30:48.566Z,11.10
2023-04-08T11:33:15.391Z,11.20
2023-04-08T11:35:43.622Z,11.20
2023-04-08T11:38:11.442Z,11.00
2023-04-08T11:40:38.589Z,11.20
2023-04-08T11:43:12.749Z,11.30
2023-04-08T11:45:40.730Z,11.50
2023-04-08T11:48:12.037Z,11.50
2023-04-08T11:50:38.901Z,11.70
2023-04-08T11:53:25.064Z,11.70
2023-04-08T11:55:52.382Z,11.60
2023-04-08T11:58:19.140Z,11.70
2023-04-08T12:00:46.036Z,11.70
2023-04-08T12:03:13.534Z,11.80
2023-04-08T12:05:40.905Z,11.80
2023-04-08T12:08:07.747Z,11.90
2023-04-08T12:10:34.594Z,12.00
2023-04-08T12:13:01.417Z,12.00
2023-04-08T12:15:28.282Z,11.90
2023-04-08T12:17:55.830Z,11.70
2023-04-08T12:20:22.656Z,11.60
2023-04-08T12:22:49.496Z,11.80
2023-04-08T12:25:16.272Z,12.30
2023-04-08T12:27:43.238Z,12.90
2023-04-08T12:30:10.767Z,13.90
2023-04-08T12:32:38.071Z,14.40
2023-04-08T12:35:05.376Z,14.10
2023-04-08T12:37:33.359Z,13.60
2023-04-08T12:40:00.369Z,13.10
2023-04-08T12:42:27.946Z,12.80
2023-04-08T12:44:54.826Z,12.80
2023-04-08T12:47:22.259Z,13.10
2023-04-08T12:49:50.512Z,13.40
2023-04-08T12:52:17.678Z,13.60
2023-04-08T12:54:45.010Z,13.60
2023-04-08T12:57:12.475Z,13.30
2023-04-08T12:59:40.119Z,13.00
2023-04-08T13:02:07.925Z,13.00
2023-04-08T13:04:35.297Z,12.90
2023-04-08T13:07:02.291Z,13.20
2023-04-08T13:09:30.531Z,13.20
2023-04-08T13:11:58.271Z,13.40
2023-04-08T13:14:25.425Z,13.40
2023-04-08T13:16:52.554Z,13.40
2023-04-08T13:19:19.452Z,13.30
2023-04-08T13:21:46.455Z,13.20
2023-04-08T13:24:13.566Z,13.60
2023-04-08T13:26:40.664Z,14.60
2023-04-08T13:29:07.478Z,16.00
2023-04-08T13:31:34.412Z,17.30
2023-04-08T13:34:01.418Z,18.20
2023-04-08T13:36:31.539Z,19.10
2023-04-08T13:38:58.465Z,20.00
2023-04-08T13:41:26.096Z,20.30
2023-04-08T13:43:53.620Z,21.00
2023-04-08T13:46:20.515Z,20.50
2023-04-08T13:48:47.360Z,19.20
2023-04-08T13:51:14.574Z,18.40
2023-04-08T13:53:41.587Z,17.30
2023-04-08T13:56:08.633Z,17.20
2023-04-08T13:58:35.387Z,16.60
2023-04-08T14:01:02.614Z,16.50
2023-04-08T14:03:29.590Z,18.10
2023-04-08T14:05:57.250Z,19.30
2023-04-08T14:08:25.848Z,20.30
2023-04-08T14:10:53.456Z,20.60
2023-04-08T14:13:20.767Z,21.30
2023-04-08T14:15:48.058Z,21.90
2023-04-08T14:18:17.441Z,21.90
2023-04-08T14:20:44.485Z,22.50
2023-04-08T14:23:13.479Z,22.50
2023-04-08T14:25:40.831Z,22.40
2023-04-08T14:28:07.974Z,21.40
2023-04-08T14:30:36.195Z,19.90
2023-04-08T14:33:05.108Z,20.00
2023-04-08T14:35:32.138Z,19.80
2023-04-08T14:37:59.551Z,19.80
2023-04-08T14:40:28.992Z,18.70
2023-04-08T14:42:55.877Z,17.40
2023-04-08T14:45:22.873Z,16.60
2023-04-08T14:47:49.907Z,16.10
2023-04-08T14:50:16.881Z,16.10
2023-04-08T14:52:45.226Z,16.30
2023-04-08T14:55:12.395Z,17.10
2023-04-08T14:57:39.296Z,17.10
2023-04-08T15:00:07.569Z,17.80
2023-04-08T15:02:34.601Z,19.20
2023-04-08T15:05:01.576Z,20.30
2023-04-08T15:07:28.572Z,21.30
2023-04-08T15:09:56.486Z,21.00
2023-04-08T15:12:23.228Z,20.90
2023-04-08T15:14:50.013Z,21.20
2023-04-08T15:17:17.102Z,21.50
2023-04-08T15:19:43.919Z,20.80
2023-04-08T15:22:11.676Z,20.60
2023-04-08T15:24:38.491Z,19.20
2023-04-08T15:27:05.433Z,18.50
2023-04-08T15:29:32.459Z,17.40
2023-04-08T15:31:59.310Z,16.80
2023-04-08T15:34:26.086Z,16.80
2023-04-08T15:36:52.882Z,18.10
2023-04-08T15:39:19.736Z,17.90
2023-04-08T15:41:46.964Z,18.20
2023-04-08T15:44:13.711Z,18.40
2023-04-08T15:46:40.519Z,18.80
2023-04-08T15:49:07.665Z,17.90
2023-04-08T15:51:34.625Z,17.10
2023-04-08T15:54:01.563Z,16.40
2023-04-08T15:56:29.581Z,15.80
2023-04-08T15:58:59.367Z,15.50
2023-04-08T16:01:26.186Z,14.90
2023-04-08T16:03:53.347Z,14.40
2023-04-08T16:06:20.365Z,14.00
2023-04-08T16:08:48.078Z,13.90
2023-04-08T16:11:15.038Z,13.90
2023-04-08T16:13:42.462Z,13.70
2023-04-08T16:16:09.679Z,13.70
2023-04-08T16:18:36.780Z,13.70
2023-04-08T16:21:06.606Z,13.80
2023-04-08T16:23:35.494Z,13.90
2023-04-08T16:26:02.514Z,13.90
2023-04-08T16:28:29.381Z,13.80
2023-04-08T16:30:56.548Z,13.70
2023-04-08T16:33:29.620Z,13.50
2023-04-08T16:36:04.271Z,13.50
2023-04-08T16:38:31.091Z,13.30
2023-04-08T16:40:58.754Z,13.10
2023-04-08T16:43:26.625Z,12.90
2023-04-08T16:45:54.002Z,12.70
2023-04-08T16:48:21.084Z,12.60
2023-04-08T16:50:47.864Z,12.40
2023-04-08T16:53:14.755Z,12.30
2023-04-08T16:55:41.571Z,12.20
2023-04-08T16:58:08.364Z,12.20
2023-04-08T17:00:35.185Z,12.20
2023-04-08T17:03:02.238Z,12.20
2023-04-08T17:05:29.505Z,12.10
2023-04-08T17:07:56.618Z,11.80
2023-04-08T17:10:23.854Z,11.50
2023-04-08T17:12:50.693Z,11.20
2023-04-08T17:15:17.720Z,10.90
2023-04-08T17:17:44.790Z,10.60
2023-04-08T17:20:12.119Z,10.40
2023-04-08T17:22:39.073Z,10.30
2023-04-08T17:25:06.650Z,10.10
2023-04-08T17:27:33.656Z,9.90
2023-04-08T17:30:00.487Z,9.80
2023-04-08T17:32:27.627Z,9.60
2023-04-08T17:34:54.566Z,9.50
2023-04-08T17:37:21.442Z,9.40
2023-04-08T17:39:48.246Z,9.20
2023-04-08T17:42:15.064Z,9.10
2023-04-08T17:44:42.533Z,9.00
2023-04-08T17:47:09.453Z,8.90
2023-04-08T17:49:36.387Z,8.70
2023-04-08T17:52:06.224Z,8.60
2023-04-08T17:54:34.481Z,8.50
2023-04-08T17:57:04.145Z,8.40
2023-04-08T17:59:31.046Z,8.30
2023-04-08T18:01:57.927Z,8.20
2023-04-08T18:04:24.853Z,8.00
2023-04-08T18:06:51.648Z,7.90
2023-04-08T18:09:18.630Z,7.90
2023-04-08T18:11:45.479Z,7.80
2023-04-08T18:14:12.770Z,7.70
2023-04-08T18:16:39.653Z,7.60
2023-04-08T18:19:06.575Z,7.50
2023-04-08T18:21:33.373Z,7.40
2023-04-08T18:24:00.219Z,7.40
2023-04-08T18:26:28.259Z,7.30
2023-04-08T18:28:55.249Z,7.20
2023-04-08T18:31:22.251Z,7.10
2023-04-08T18:33:49.436Z,7.10
2023-04-08T18:36:17.408Z,7.00
2023-04-08T18:38:44.801Z,6.90
2023-04-08T18:41:13.198Z,6.90
2023-04-08T18:43:40.154Z,6.90
2023-04-08T18:46:07.152Z,6.90
2023-04-08T18:48:34.189Z,6.80
2023-04-08T18:51:04.514Z,6.80
2023-04-08T18:53:31.480Z,6.70
2023-04-08T18:55:58.408Z,6.70
2023-04-08T18:58:27.035Z,6.70
2023-04-08T19:00:53.882Z,6.80
2023-04-08T19:03:20.909Z,6.80
2023-04-08T19:05:51.434Z,6.80
2023-04-08T19:08:18.300Z,6.80
2023-04-08T19:10:45.232Z,6.90
2023-04-08T19:13:11.973Z,6.90
2023-04-08T19:15:38.841Z,6.90
2023-04-08T19:18:05.757Z,6.90
2023-04-08T19:20:32.813Z,6.90
2023-04-08T19:23:00.261Z,6.80
2023-04-08T19:25:27.113Z,6.90
2023-04-08T19:27:53.983Z,7.00
2023-04-08T19:30:21.081Z,7.00
2023-04-08T19:32:48.623Z,7.00
2023-04-08T19:35:15.692Z,7.00
2023-04-08T19:37:42.503Z,6.90
2023-04-08T19:40:10.054Z,6.90
2023-04-08T19:42:37.191Z,6.90
2023-04-08T19:45:05.239Z,6.90
2023-04-08T19:47:34.642Z,7.00
2023-04-08T19:50:01.660Z,7.00
2023-04-08T19:52:28.593Z,7.10
2023-04-08T19:54:55.412Z,7.00
2023-04-08T19:57:22.403Z,7.00
2023-04-08T19:59:49.650Z,7.00
2023-04-08T20:02:16.813Z,7.00
2023-04-08T20:04:45.613Z,7.00
2023-04-08T20:07:13.877Z,7.00
2023-04-08T20:09:40.924Z,7.00
2023-04-08T20:12:09.088Z,7.00
2023-04-08T20:14:41.985Z,6.80
2023-04-08T20:17:09.215Z,6.80
2023-04-08T20:19:36.518Z,6.80
2023-04-08T20:22:03.347Z,6.80
2023-04-08T20:24:30.372Z,6.70
2023-04-08T20:26:58.955Z,6.70
2023-04-08T20:29:26.732Z,6.70
2023-04-08T20:31:53.905Z,6.70
2023-04-08T20:34:20.852Z,6.60
2023-04-08T20:36:47.751Z,6.70
2023-04-08T20:39:14.694Z,6.60
2023-04-08T20:41:42.390Z,6.50
2023-04-08T20:44:10.572Z,6.50
2023-04-08T20:46:38.407Z,6.50
2023-04-08T20:49:05.621Z,6.40
2023-04-08T20:51:35.608Z,6.40
2023-04-08T20:54:02.533Z,6.50
2023-04-08T20:56:29.576Z,6.40
2023-04-08T20:58:58.202Z,6.50
2023-04-08T21:01:26.960Z,6.50
2023-04-08T21:03:54.708Z,6.50
2023-04-08T21:06:21.902Z,6.50
2023-04-08T21:08:50.037Z,6.50
2023-04-08T21:11:17.112Z,6.50
2023-04-08T21:13:52.654Z,6.40
2023-04-08T21:16:19.517Z,6.40
2023-04-08T21:18:46.570Z,6.40
2023-04-08T21:21:13.416Z,6.40
2023-04-08T21:23:40.414Z,6.40
2023-04-08T21:26:12.767Z,6.30
2023-04-08T21:28:40.509Z,6.30
2023-04-08T21:31:11.744Z,6.20
2023-04-08T21:33:39.330Z,6.10
2023-04-08T21:36:07.161Z,6.00
2023-04-08T21:38:34.844Z,6.10
2023-04-08T21:41:01.828Z,6.00
2023-04-08T21:43:28.755Z,5.90
2023-04-08T21:45:55.806Z,5.90
2023-04-08T21:48:23.353Z,5.90
2023-04-08T21:50:50.294Z,5.80
2023-04-08T21:53:17.931Z,5.70
2023-04-08T21:55:44.863Z,5.80
2023-04-08T21:58:12.231Z,5.70
2023-04-08T22:00:39.530Z,5.60
2023-04-08T22:03:07.362Z,5.60
2023-04-08T22:05:34.555Z,5.50
2023-04-08T22:08:02.154Z,5.40
2023-04-08T22:10:29.082Z,5.30
2023-04-08T22:12:55.972Z,5.20
2023-04-08T22:15:23.093Z,5.10
2023-04-08T22:17:50.007Z,5.10
2023-04-08T22:20:19.534Z,4.90
2023-04-08T22:22:46.518Z,4.80
2023-04-08T22:25:13.392Z,4.80
2023-04-08T22:27:40.961Z,4.70
2023-04-08T22:30:08.348Z,4.70
2023-04-08T22:32:35.252Z,4.50
2023-04-08T22:35:02.337Z,4.40
2023-04-08T22:37:29.348Z,4.30
2023-04-08T22:40:00.252Z,4.30
2023-04-08T22:42:27.626Z,4.30
2023-04-08T22:44:54.468Z,4.10
2023-04-08T22:47:21.723Z,4.10
2023-04-08T22:49:48.566Z,4.00
2023-04-08T22:52:15.539Z,3.90
2023-04-08T22:54:45.532Z,3.90
2023-04-08T22:57:12.406Z,3.80
2023-04-08T22:59:39.148Z,3.70
2023-04-08T23:02:06.439Z,3.60
2023-04-08T23:04:33.411Z,3.50
2023-04-08T23:07:00.274Z,3.50
2023-04-08T23:09:27.181Z,3.40
2023-04-08T23:11:53.994Z,3.20
2023-04-08T23:14:20.838Z,3.10
2023-04-08T23:16:47.629Z,3.10
2023-04-08T23:19:14.592Z,3.10
2023-04-08T23:21:41.461Z,3.10
2023-04-08T23:24:08.273Z,3.00
2023-04-08T23:26:35.115Z,3.10
2023-04-08T23:29:01.986Z,3.00
2023-04-08T23:31:28.813Z,2.90
2023-04-08T23:33:55.598Z,2.80
2023-04-08T23:36:22.696Z,2.80
2023-04-08T23:38:50.759Z,2.70
2023-04-08T23:41:18.000Z,2.60
2023-04-08T23:43:46.556Z,2.60
2023-04-08T23:46:13.441Z,2.50
2023-04-08T23:48:40.214Z,2.50
2023-04-08T23:51:07.088Z,2.50
2023-04-08T23:53:33.956Z,2.40
2023-04-08T23:56:08.371Z,2.40
2023-04-08T23:58:35.805Z,2.30
